createdAt,value
2022-08-27T00:02:22.284Z,17.94
2022-08-27T00:04:52.519Z,17.90
2022-08-27T00:07:21.092Z,17.74
2022-08-27T00:09:49.560Z,17.87
2022-08-27T00:12:18.052Z,17.90
2022-08-27T00:14:46.769Z,17.88
2022-08-27T00:17:15.999Z,17.87
2022-08-27T00:19:45.206Z,17.73
2022-08-27T00:22:15.622Z,17.87
2022-08-27T00:24:48.610Z,17.87
2022-08-27T00:27:17.978Z,17.86
2022-08-27T00:29:46.506Z,17.74
2022-08-27T00:32:15.259Z,17.85
2022-08-27T00:34:43.781Z,17.83
2022-08-27T00:37:12.476Z,17.84
2022-08-27T00:39:42.878Z,17.84
2022-08-27T00:42:11.529Z,17.39
2022-08-27T00:44:40.641Z,17.85
2022-08-27T00:47:14.133Z,17.72
2022-08-27T00:49:46.498Z,17.86
2022-08-27T00:52:20.305Z,17.83
2022-08-27T00:54:51.480Z,17.62
2022-08-27T00:57:20.629Z,17.82
2022-08-27T00:59:49.703Z,17.53
2022-08-27T01:02:21.174Z,17.83
2022-08-27T01:04:53.159Z,17.72
2022-08-27T01:07:23.267Z,17.71
2022-08-27T01:09:54.793Z,16.43
2022-08-27T01:12:23.492Z,17.89
2022-08-27T01:14:53.205Z,17.89
2022-08-27T01:17:21.744Z,17.90
2022-08-27T01:19:54.541Z,17.91
2022-08-27T01:22:31.613Z,17.91
2022-08-27T01:25:06.345Z,17.78
2022-08-27T01:27:35.106Z,17.92
2022-08-27T01:30:04.261Z,17.93
2022-08-27T01:32:34.870Z,17.94
2022-08-27T01:35:05.735Z,17.94
2022-08-27T01:37:34.594Z,17.84
2022-08-27T01:40:06.045Z,17.88
2022-08-27T01:42:38.504Z,17.86
2022-08-27T01:45:10.270Z,17.18
2022-08-27T01:47:39.328Z,17.79
2022-08-27T01:50:12.240Z,17.65
2022-08-27T01:52:40.785Z,17.79
2022-08-27T01:55:14.025Z,17.83
2022-08-27T01:57:43.180Z,17.84
2022-08-27T02:00:16.400Z,17.85
2022-08-27T02:02:45.424Z,17.88
2022-08-27T02:05:14.441Z,17.88
2022-08-27T02:07:43.658Z,17.67
2022-08-27T02:10:19.743Z,17.92
2022-08-27T02:12:53.224Z,17.91
2022-08-27T02:15:22.689Z,17.93
2022-08-27T02:17:51.556Z,17.94
2022-08-27T02:20:20.584Z,17.94
2022-08-27T02:22:49.871Z,17.93
2022-08-27T02:25:21.896Z,17.95
2022-08-27T02:27:51.901Z,17.96
2022-08-27T02:30:24.384Z,17.96
2022-08-27T02:32:53.224Z,17.40
2022-08-27T02:35:23.772Z,17.97
2022-08-27T02:37:53.180Z,17.86
2022-08-27T02:40:24.820Z,17.96
2022-08-27T02:42:53.790Z,17.92
2022-08-27T02:45:23.164Z,17.93
2022-08-27T02:47:51.641Z,17.91
2022-08-27T02:50:20.107Z,17.91
2022-08-27T02:52:48.831Z,17.92
2022-08-27T02:55:17.554Z,17.89
2022-08-27T02:57:48.955Z,17.89
2022-08-27T03:00:21.096Z,17.87
2022-08-27T03:02:49.997Z,17.87
2022-08-27T03:05:19.623Z,17.78
2022-08-27T03:07:48.589Z,17.39
2022-08-27T03:10:19.489Z,17.72
2022-08-27T03:12:49.978Z,17.50
2022-08-27T03:15:20.362Z,17.69
2022-08-27T03:18:06.310Z,17.82
2022-08-27T03:20:35.348Z,17.79
2022-08-27T03:23:03.758Z,17.81
2022-08-27T03:25:33.956Z,17.21
2022-08-27T03:28:04.381Z,17.74
2022-08-27T03:30:38.129Z,17.74
2022-08-27T03:33:08.320Z,17.76
2022-08-27T03:35:37.087Z,17.58
2022-08-27T03:38:05.741Z,17.76
2022-08-27T03:40:34.689Z,17.74
2022-08-27T03:43:04.885Z,17.74
2022-08-27T03:45:48.539Z,17.73
2022-08-27T03:48:21.946Z,17.69
2022-08-27T03:50:52.215Z,17.70
2022-08-27T03:53:21.790Z,17.71
2022-08-27T03:55:51.145Z,17.70
2022-08-27T03:58:21.335Z,17.40
2022-08-27T04:00:49.859Z,17.43
2022-08-27T04:03:18.320Z,17.57
2022-08-27T04:05:46.915Z,17.58
2022-08-27T04:08:15.358Z,17.57
2022-08-27T04:10:43.888Z,17.27
2022-08-27T04:13:12.462Z,17.57
2022-08-27T04:15:46.247Z,17.26
2022-08-27T04:18:16.690Z,17.56
2022-08-27T04:20:45.696Z,17.54
2022-08-27T04:23:14.454Z,17.51
2022-08-27T04:25:43.973Z,17.47
2022-08-27T04:28:13.856Z,17.24
2022-08-27T04:30:44.556Z,17.08
2022-08-27T04:33:15.463Z,17.02
2022-08-27T04:35:44.640Z,17.48
2022-08-27T04:38:13.405Z,17.49
2022-08-27T04:40:59.055Z,17.53
2022-08-27T04:45:57.300Z,17.51
2022-08-27T04:48:27.986Z,17.50
2022-08-27T04:50:56.513Z,17.21
2022-08-27T04:53:25.423Z,17.48
2022-08-27T04:55:56.828Z,17.01
2022-08-27T04:58:26.600Z,17.25
2022-08-27T05:00:58.295Z,17.42
2022-08-27T05:03:29.478Z,17.45
2022-08-27T05:06:02.593Z,17.12
2022-08-27T05:08:32.509Z,17.39
2022-08-27T05:11:02.002Z,17.44
2022-08-27T05:13:31.050Z,16.96
2022-08-27T05:16:01.736Z,17.21
2022-08-27T05:18:36.308Z,17.26
2022-08-27T05:21:12.738Z,17.58
2022-08-27T05:23:41.481Z,17.35
2022-08-27T05:26:10.298Z,17.53
2022-08-27T05:28:38.980Z,17.47
2022-08-27T05:31:12.552Z,17.37
2022-08-27T05:33:43.326Z,17.28
2022-08-27T05:36:17.384Z,17.36
2022-08-27T05:38:46.253Z,17.35
2022-08-27T05:41:17.823Z,17.36
2022-08-27T05:43:50.108Z,17.36
2022-08-27T05:46:21.226Z,17.36
2022-08-27T05:48:52.499Z,17.35
2022-08-27T05:51:25.946Z,17.35
2022-08-27T05:53:57.177Z,17.36
2022-08-27T05:56:27.914Z,17.37
2022-08-27T05:59:14.112Z,17.17
2022-08-27T06:01:45.152Z,17.35
2022-08-27T06:04:17.501Z,17.36
2022-08-27T06:06:47.527Z,17.21
2022-08-27T06:09:20.076Z,17.24
2022-08-27T06:11:49.033Z,17.35
2022-08-27T06:14:17.762Z,17.18
2022-08-27T06:16:46.177Z,17.21
2022-08-27T06:19:16.708Z,17.34
2022-08-27T06:21:45.563Z,17.21
2022-08-27T06:24:15.000Z,17.37
2022-08-27T06:26:45.473Z,17.37
2022-08-27T06:29:15.013Z,17.30
2022-08-27T06:31:44.292Z,16.96
2022-08-27T06:34:13.005Z,17.28
2022-08-27T06:36:43.905Z,17.11
2022-08-27T06:39:17.055Z,17.26
2022-08-27T06:41:46.282Z,17.28
2022-08-27T06:44:15.664Z,17.12
2022-08-27T06:46:45.109Z,17.24
2022-08-27T06:49:13.713Z,17.25
2022-08-27T06:51:47.140Z,17.27
2022-08-27T06:54:16.905Z,17.23
2022-08-27T06:56:46.068Z,16.63
2022-08-27T06:59:17.354Z,17.09
2022-08-27T07:01:48.881Z,17.21
2022-08-27T07:04:22.104Z,17.05
2022-08-27T07:06:52.225Z,17.20
2022-08-27T07:09:21.877Z,17.07
2022-08-27T07:11:50.365Z,17.24
2022-08-27T07:14:19.274Z,17.12
2022-08-27T07:16:48.333Z,17.03
2022-08-27T07:19:19.125Z,17.28
2022-08-27T07:21:49.719Z,17.27
2022-08-27T07:24:19.847Z,17.09
2022-08-27T07:26:49.045Z,17.26
2022-08-27T07:29:17.709Z,17.26
2022-08-27T07:31:46.149Z,17.25
2022-08-27T07:34:14.781Z,17.10
2022-08-27T07:36:43.317Z,17.30
2022-08-27T07:39:14.079Z,16.39
2022-08-27T07:42:01.412Z,17.34
2022-08-27T07:44:34.270Z,17.30
2022-08-27T07:47:03.671Z,17.27
2022-08-27T07:49:35.212Z,17.29
2022-08-27T07:52:04.352Z,17.30
2022-08-27T07:54:32.843Z,17.30
2022-08-27T07:57:02.914Z,16.65
2022-08-27T07:59:31.565Z,17.03
2022-08-27T08:02:00.065Z,17.33
2022-08-27T08:04:29.245Z,17.17
2022-08-27T08:06:58.041Z,16.26
2022-08-27T08:09:27.193Z,17.42
2022-08-27T08:11:55.707Z,17.43
2022-08-27T08:14:26.103Z,17.49
2022-08-27T08:16:54.679Z,17.49
2022-08-27T08:19:23.229Z,17.50
2022-08-27T08:21:57.245Z,17.29
2022-08-27T08:24:29.155Z,17.45
2022-08-27T08:26:57.598Z,17.45
2022-08-27T08:29:27.659Z,17.48
2022-08-27T08:31:56.244Z,17.50
2022-08-27T08:34:24.854Z,17.54
2022-08-27T08:36:55.158Z,17.59
2022-08-27T08:39:24.553Z,17.59
2022-08-27T08:41:56.070Z,17.60
2022-08-27T08:44:32.804Z,16.76
2022-08-27T08:47:16.198Z,17.65
2022-08-27T08:49:51.160Z,17.63
2022-08-27T08:52:32.330Z,17.65
2022-08-27T08:55:09.806Z,17.63
2022-08-27T08:57:43.845Z,17.09
2022-08-27T09:00:15.956Z,17.68
2022-08-27T09:02:52.786Z,17.67
2022-08-27T09:05:24.075Z,17.65
2022-08-27T09:08:34.104Z,17.62
2022-08-27T09:11:01.417Z,17.60
2022-08-27T09:13:34.894Z,17.59
2022-08-27T09:16:06.530Z,17.50
2022-08-27T09:18:38.313Z,17.32
2022-08-27T09:21:19.639Z,17.50
2022-08-27T09:24:05.671Z,17.48
2022-08-27T09:26:38.318Z,17.16
2022-08-27T09:29:20.509Z,17.49
2022-08-27T09:32:00.123Z,17.61
2022-08-27T09:34:37.100Z,17.65
2022-08-27T09:37:11.755Z,17.66
2022-08-27T09:39:50.226Z,17.68
2022-08-27T09:42:31.046Z,17.73
2022-08-27T09:45:01.498Z,17.75
2022-08-27T09:47:31.636Z,17.76
2022-08-27T09:50:07.068Z,17.82
2022-08-27T09:52:39.099Z,17.77
2022-08-27T09:55:08.676Z,17.61
2022-08-27T09:57:41.901Z,17.81
2022-08-27T10:00:17.205Z,17.86
2022-08-27T10:02:55.213Z,17.70
2022-08-27T10:05:30.484Z,17.97
2022-08-27T10:08:04.066Z,18.03
2022-08-27T10:10:40.752Z,17.99
2022-08-27T10:13:15.503Z,18.13
2022-08-27T10:15:56.176Z,18.24
2022-08-27T10:18:37.701Z,18.28
2022-08-27T10:21:15.695Z,18.34
2022-08-27T10:23:53.020Z,18.44
2022-08-27T10:26:33.689Z,18.43
2022-08-27T10:29:14.218Z,18.62
2022-08-27T10:32:04.655Z,18.46
2022-08-27T10:34:46.681Z,18.69
2022-08-27T10:37:36.788Z,18.70
2022-08-27T10:40:18.206Z,18.56
2022-08-27T10:42:57.489Z,18.62
2022-08-27T10:45:42.765Z,18.63
2022-08-27T10:48:24.832Z,18.62
2022-08-27T10:51:05.963Z,18.62
2022-08-27T10:53:44.392Z,18.71
2022-08-27T10:56:20.990Z,18.70
2022-08-27T10:59:04.072Z,18.73
2022-08-27T11:01:44.136Z,18.24
2022-08-27T11:04:16.868Z,18.78
2022-08-27T11:06:52.541Z,18.64
2022-08-27T11:09:24.108Z,18.82
2022-08-27T11:12:13.969Z,18.81
2022-08-27T11:14:51.348Z,18.94
2022-08-27T11:17:33.026Z,19.01
2022-08-27T11:20:09.757Z,19.08
2022-08-27T11:22:46.744Z,19.12
2022-08-27T11:25:37.669Z,19.26
2022-08-27T11:28:08.669Z,19.21
2022-08-27T11:30:51.457Z,19.35
2022-08-27T11:33:26.820Z,19.27
2022-08-27T11:36:21.407Z,18.69
2022-08-27T11:38:56.653Z,19.37
2022-08-27T11:41:53.920Z,19.25
2022-08-27T11:44:26.932Z,19.31
2022-08-27T11:46:58.834Z,19.27
2022-08-27T11:49:32.212Z,19.22
2022-08-27T11:52:05.713Z,19.19
2022-08-27T11:54:46.733Z,19.07
2022-08-27T11:57:29.810Z,19.14
2022-08-27T12:00:01.815Z,18.68
2022-08-27T12:02:32.160Z,19.07
2022-08-27T12:05:13.468Z,19.05
2022-08-27T12:07:49.698Z,19.07
2022-08-27T12:10:41.107Z,19.10
2022-08-27T12:13:23.056Z,19.10
2022-08-27T12:16:03.323Z,19.10
2022-08-27T12:18:45.713Z,19.09
2022-08-27T12:21:22.342Z,19.08
2022-08-27T12:24:12.194Z,19.16
2022-08-27T12:26:44.038Z,19.10
2022-08-27T12:29:43.969Z,19.09
2022-08-27T12:32:26.421Z,19.12
2022-08-27T12:35:03.425Z,19.10
2022-08-27T12:37:36.545Z,19.02
2022-08-27T12:40:15.120Z,18.52
2022-08-27T12:42:49.964Z,19.04
2022-08-27T12:45:24.594Z,19.01
2022-08-27T12:47:55.350Z,18.54
2022-08-27T12:50:29.900Z,18.97
2022-08-27T12:53:23.715Z,18.95
2022-08-27T12:56:04.369Z,18.93
2022-08-27T12:58:45.245Z,18.89
2022-08-27T13:01:32.648Z,18.99
2022-08-27T13:04:02.342Z,18.98
2022-08-27T13:06:33.871Z,19.00
2022-08-27T13:09:04.972Z,19.00
2022-08-27T13:11:36.790Z,18.21
2022-08-27T13:14:13.425Z,18.91
2022-08-27T13:16:48.830Z,18.70
2022-08-27T13:19:23.072Z,18.84
2022-08-27T13:21:52.853Z,18.90
2022-08-27T13:24:28.197Z,18.90
2022-08-27T13:26:57.819Z,18.91
2022-08-27T13:29:28.664Z,18.94
2022-08-27T13:31:58.633Z,18.93
2022-08-27T13:34:29.857Z,18.97
2022-08-27T13:37:00.471Z,19.03
2022-08-27T13:39:30.463Z,19.05
2022-08-27T13:42:01.766Z,18.97
2022-08-27T13:44:37.276Z,18.83
2022-08-27T13:47:09.849Z,18.70
2022-08-27T13:49:42.223Z,19.07
2022-08-27T13:52:25.899Z,19.07
2022-08-27T13:55:00.671Z,19.07
2022-08-27T13:57:31.535Z,19.03
2022-08-27T14:00:15.808Z,19.02
2022-08-27T14:02:55.545Z,18.97
2022-08-27T14:05:31.342Z,18.96
2022-08-27T14:08:01.577Z,18.80
2022-08-27T14:10:34.984Z,18.77
2022-08-27T14:13:07.692Z,18.88
2022-08-27T14:15:40.291Z,18.87
2022-08-27T14:18:32.096Z,18.83
2022-08-27T14:21:10.744Z,18.78
2022-08-27T14:23:39.197Z,18.78
2022-08-27T14:26:10.149Z,18.78
2022-08-27T14:28:38.684Z,18.72
2022-08-27T14:31:08.801Z,18.74
2022-08-27T14:33:38.104Z,18.73
2022-08-27T14:36:08.453Z,18.74
2022-08-27T14:38:40.842Z,18.58
2022-08-27T14:41:09.931Z,18.77
2022-08-27T14:43:38.601Z,18.71
2022-08-27T14:46:12.971Z,18.69
2022-08-27T14:48:51.476Z,18.69
2022-08-27T14:51:25.152Z,18.70
2022-08-27T14:53:54.124Z,18.73
2022-08-27T14:56:23.706Z,18.73
2022-08-27T14:58:53.808Z,18.64
2022-08-27T15:01:26.463Z,18.70
2022-08-27T15:03:56.100Z,18.61
2022-08-27T15:06:27.291Z,18.68
2022-08-27T15:08:56.140Z,18.69
2022-08-27T15:11:28.192Z,18.63
2022-08-27T15:13:58.254Z,18.32
2022-08-27T15:16:33.853Z,18.50
2022-08-27T15:19:08.456Z,18.50
2022-08-27T15:21:49.923Z,18.30
2022-08-27T15:24:29.668Z,18.44
2022-08-27T15:27:05.399Z,18.46
2022-08-27T15:29:38.651Z,18.41
2022-08-27T15:32:18.031Z,18.34
2022-08-27T15:34:49.558Z,18.41
2022-08-27T15:37:18.059Z,18.42
2022-08-27T15:39:46.568Z,18.27
2022-08-27T15:42:15.501Z,18.44
2022-08-27T15:44:47.066Z,18.42
2022-08-27T15:47:19.712Z,18.41
2022-08-27T15:49:48.609Z,18.17
2022-08-27T15:52:19.448Z,18.19
2022-08-27T15:54:50.655Z,18.29
2022-08-27T15:57:20.497Z,18.26
2022-08-27T15:59:49.856Z,17.97
2022-08-27T16:02:22.064Z,18.19
2022-08-27T16:04:51.228Z,18.06
2022-08-27T16:07:21.464Z,17.78
2022-08-27T16:09:50.588Z,18.20
2022-08-27T16:12:26.999Z,18.20
2022-08-27T16:14:56.849Z,18.19
2022-08-27T16:17:27.856Z,18.19
2022-08-27T16:19:56.883Z,18.07
2022-08-27T16:22:26.394Z,18.12
2022-08-27T16:24:55.203Z,18.10
2022-08-27T16:27:26.562Z,17.33
2022-08-27T16:29:58.237Z,18.12
2022-08-27T16:32:30.119Z,18.09
2022-08-27T16:35:00.758Z,18.10
2022-08-27T16:37:29.233Z,17.82
2022-08-27T16:39:58.506Z,18.11
2022-08-27T16:42:27.048Z,18.13
2022-08-27T16:44:55.644Z,18.11
2022-08-27T16:47:24.082Z,17.40
2022-08-27T16:50:11.833Z,18.12
2022-08-27T16:52:52.899Z,18.00
2022-08-27T16:55:21.668Z,17.97
2022-08-27T16:57:51.145Z,17.93
2022-08-27T17:00:20.774Z,17.91
2022-08-27T17:02:49.278Z,17.86
2022-08-27T17:05:35.474Z,17.59
2022-08-27T17:08:05.609Z,17.78
2022-08-27T17:10:41.332Z,17.77
2022-08-27T17:13:10.713Z,17.30
2022-08-27T17:15:39.760Z,17.77
2022-08-27T17:18:08.588Z,17.74
2022-08-27T17:20:38.930Z,17.75
2022-08-27T17:23:09.593Z,17.73
2022-08-27T17:25:38.276Z,17.76
2022-08-27T17:28:07.806Z,17.74
2022-08-27T17:30:36.680Z,16.90
2022-08-27T17:33:05.410Z,17.68
2022-08-27T17:35:34.638Z,17.09
2022-08-27T17:38:05.445Z,17.63
2022-08-27T17:40:34.229Z,16.62
2022-08-27T17:43:03.162Z,17.58
2022-08-27T17:45:31.851Z,16.60
2022-08-27T17:48:00.738Z,17.53
2022-08-27T17:50:41.076Z,16.68
2022-08-27T17:53:11.477Z,16.81
2022-08-27T17:55:40.114Z,17.54
2022-08-27T17:58:09.988Z,17.43
2022-08-27T18:00:40.909Z,16.93
2022-08-27T18:03:18.000Z,17.47
2022-08-27T18:05:48.519Z,17.47
2022-08-27T18:08:20.558Z,17.46
2022-08-27T18:10:49.778Z,17.43
2022-08-27T18:13:20.602Z,17.43
2022-08-27T18:15:50.848Z,17.01
2022-08-27T18:18:19.858Z,17.38
2022-08-27T18:20:49.158Z,16.80
2022-08-27T18:23:23.012Z,17.23
2022-08-27T18:25:52.158Z,17.29
2022-08-27T18:28:22.420Z,17.01
2022-08-27T18:30:51.714Z,15.88
2022-08-27T18:33:20.370Z,15.92
2022-08-27T18:35:50.175Z,17.16
2022-08-27T18:38:21.870Z,17.15
2022-08-27T18:40:55.239Z,17.14
2022-08-27T18:43:29.745Z,17.12
2022-08-27T18:45:58.656Z,16.68
2022-08-27T18:48:27.509Z,17.11
2022-08-27T18:50:59.023Z,17.08
2022-08-27T18:53:32.460Z,16.51
2022-08-27T18:56:02.059Z,17.02
2022-08-27T18:58:31.764Z,17.00
2022-08-27T19:01:03.904Z,16.47
2022-08-27T19:03:35.247Z,16.83
2022-08-27T19:06:08.740Z,16.84
2022-08-27T19:08:40.744Z,16.82
2022-08-27T19:11:10.679Z,16.83
2022-08-27T19:13:39.934Z,16.68
2022-08-27T19:16:13.943Z,16.84
2022-08-27T19:18:43.441Z,16.80
2022-08-27T19:21:12.689Z,16.77
2022-08-27T19:23:43.423Z,16.53
2022-08-27T19:26:17.291Z,16.60
2022-08-27T19:28:46.832Z,16.45
2022-08-27T19:31:16.126Z,16.63
2022-08-27T19:33:47.258Z,16.64
2022-08-27T19:36:20.680Z,16.64
2022-08-27T19:38:52.861Z,16.65
2022-08-27T19:41:27.195Z,16.64
2022-08-27T19:46:57.984Z,16.62
2022-08-27T19:49:27.101Z,16.64
2022-08-27T19:51:56.094Z,16.62
2022-08-27T19:54:26.501Z,16.62
2022-08-27T19:57:02.602Z,16.42
2022-08-27T19:59:31.419Z,16.26
2022-08-27T20:01:59.843Z,16.58
2022-08-27T20:04:32.930Z,16.26
2022-08-27T20:07:03.801Z,16.58
2022-08-27T20:09:34.403Z,16.26
2022-08-27T20:12:04.127Z,16.58
2022-08-27T20:14:34.189Z,16.50
2022-08-27T20:17:08.171Z,16.41
2022-08-27T20:19:38.781Z,16.57
2022-08-27T20:22:08.807Z,16.56
2022-08-27T20:24:40.197Z,16.56
2022-08-27T20:27:10.128Z,16.54
2022-08-27T20:29:42.237Z,16.56
2022-08-27T20:32:13.584Z,16.40
2022-08-27T20:34:43.746Z,16.20
2022-08-27T20:37:13.972Z,16.59
2022-08-27T20:42:40.119Z,16.60
2022-08-27T20:45:12.424Z,16.53
2022-08-27T20:47:46.967Z,16.59
2022-08-27T20:50:16.918Z,16.52
2022-08-27T20:52:45.861Z,16.51
2022-08-27T20:55:15.829Z,16.49
2022-08-27T20:58:06.702Z,16.32
2022-08-27T21:00:38.283Z,16.46
2022-08-27T21:03:07.925Z,16.44
2022-08-27T21:05:37.414Z,16.40
2022-08-27T21:08:07.787Z,15.06
2022-08-27T21:10:36.978Z,16.37
2022-08-27T21:13:08.890Z,16.39
2022-08-27T21:15:41.057Z,16.43
2022-08-27T21:18:09.808Z,16.40
2022-08-27T21:20:38.586Z,16.38
2022-08-27T21:23:07.658Z,16.35
2022-08-27T21:25:37.246Z,16.35
2022-08-27T21:28:07.632Z,16.07
2022-08-27T21:30:36.257Z,16.24
2022-08-27T21:33:06.638Z,16.31
2022-08-27T21:35:35.120Z,16.29
2022-08-27T21:38:04.005Z,16.30
2022-08-27T21:40:33.254Z,16.28
2022-08-27T21:43:02.380Z,16.28
2022-08-27T21:45:30.906Z,16.29
2022-08-27T21:47:59.325Z,16.26
2022-08-27T21:50:29.741Z,15.83
2022-08-27T21:52:58.297Z,15.96
2022-08-27T21:55:26.941Z,16.24
2022-08-27T21:57:55.449Z,16.22
2022-08-27T22:00:43.934Z,16.22
2022-08-27T22:03:20.052Z,16.20
2022-08-27T22:05:50.625Z,16.22
2022-08-27T22:08:21.002Z,15.88
2022-08-27T22:10:52.692Z,16.20
2022-08-27T22:13:22.789Z,16.18
2022-08-27T22:15:51.465Z,16.16
2022-08-27T22:18:23.091Z,16.12
2022-08-27T22:20:54.544Z,16.05
2022-08-27T22:23:23.359Z,16.14
2022-08-27T22:25:51.945Z,16.09
2022-08-27T22:28:21.025Z,16.16
2022-08-27T22:30:49.486Z,16.18
2022-08-27T22:33:19.286Z,16.21
2022-08-27T22:35:47.713Z,16.02
2022-08-27T22:38:18.274Z,16.05
2022-08-27T22:40:46.778Z,16.16
2022-08-27T22:43:16.215Z,16.01
2022-08-27T22:45:44.759Z,15.61
2022-08-27T22:48:13.623Z,16.00
2022-08-27T22:50:42.423Z,16.16
2022-08-27T22:53:12.221Z,16.02
2022-08-27T22:55:43.907Z,16.16
2022-08-27T22:58:15.674Z,16.16
2022-08-27T23:00:52.237Z,16.00
2022-08-27T23:03:21.350Z,16.17
2022-08-27T23:05:50.060Z,16.15
2022-08-27T23:08:18.904Z,15.60
2022-08-27T23:10:48.762Z,16.17
2022-08-27T23:13:17.649Z,15.85
2022-08-27T23:15:46.113Z,16.18
2022-08-27T23:18:14.932Z,16.03
2022-08-27T23:20:43.597Z,16.15
2022-08-27T23:23:12.153Z,16.12
2022-08-27T23:25:57.804Z,16.13
2022-08-27T23:28:27.766Z,16.13
2022-08-27T23:30:56.371Z,16.13
2022-08-27T23:33:25.371Z,16.09
2022-08-27T23:35:53.873Z,16.08
2022-08-27T23:38:23.513Z,16.09
2022-08-27T23:40:52.474Z,15.86
2022-08-27T23:43:22.434Z,16.13
2022-08-27T23:45:52.650Z,16.15
2022-08-27T23:48:21.925Z,15.95
2022-08-27T23:50:50.711Z,16.16
2022-08-27T23:53:19.196Z,15.98
2022-08-27T23:55:47.704Z,16.14
2022-08-27T23:58:16.201Z,16.12
